createdAt,value
2016-05-31T00:00:33.953Z,0
2016-05-31T00:01:33.924Z,0
2016-05-31T00:02:33.974Z,0
2016-05-31T00:03:34.102Z,0
2016-05-31T00:04:33.979Z,0
2016-05-31T00:05:33.982Z,0
2016-05-31T00:06:33.985Z,0
2016-05-31T00:07:34.737Z,0
2016-05-31T00:08:33.911Z,0
2016-05-31T00:09:34.039Z,0
2016-05-31T00:10:34.183Z,0
2016-05-31T00:11:34.060Z,0
2016-05-31T00:12:34.219Z,0
2016-05-31T00:13:33.909Z,0
2016-05-31T00:14:34.099Z,0
2016-05-31T00:15:34.071Z,0
2016-05-31T00:16:34.246Z,0
2016-05-31T00:17:34.107Z,0
2016-05-31T00:18:34.281Z,0
2016-05-31T00:19:33.973Z,0
2016-05-31T00:20:33.991Z,0
2016-05-31T00:21:34.134Z,0
2016-05-31T00:22:34.386Z,0
2016-05-31T00:23:34.451Z,0
2016-05-31T00:24:34.188Z,0
2016-05-31T00:25:34.176Z,0
2016-05-31T00:26:34.350Z,0
2016-05-31T00:27:34.369Z,0
2016-05-31T00:28:34.246Z,0
2016-05-31T00:29:34.218Z,0
2016-05-31T00:30:34.408Z,0
2016-05-31T00:31:34.395Z,0
2016-05-31T00:32:34.272Z,0
2016-05-31T00:33:34.260Z,0
2016-05-31T00:34:34.450Z,0
2016-05-31T00:35:34.438Z,0
2016-05-31T00:36:34.455Z,0
2016-05-31T00:37:35.255Z,0
2016-05-31T00:38:34.741Z,0
2016-05-31T00:39:34.480Z,0
2016-05-31T00:40:34.497Z,0
2016-05-31T00:41:34.499Z,0
2016-05-31T00:42:34.362Z,0
2016-05-31T00:43:34.380Z,0
2016-05-31T00:44:34.555Z,0
2016-05-31T00:45:34.526Z,0
2016-05-31T00:46:34.576Z,0
2016-05-31T00:47:34.235Z,0
2016-05-31T00:48:34.457Z,0
2016-05-31T00:49:34.116Z,0
2016-05-31T00:50:34.603Z,0
2016-05-31T00:51:34.605Z,0
2016-05-31T00:52:34.327Z,0
2016-05-31T00:53:34.970Z,0
2016-05-31T00:54:34.645Z,0
2016-05-31T00:55:34.491Z,0
2016-05-31T00:56:34.665Z,0
2016-05-31T00:57:34.512Z,0
2016-05-31T00:58:34.670Z,0
2016-05-31T00:59:34.533Z,0
2016-05-31T01:00:34.536Z,0
2016-05-31T01:01:34.741Z,0
2016-05-31T01:02:34.713Z,0
2016-05-31T01:03:34.731Z,0
2016-05-31T01:04:34.766Z,0
2016-05-31T01:05:34.564Z,0
2016-05-31T01:06:34.614Z,0
2016-05-31T01:07:35.008Z,0
2016-05-31T01:08:34.541Z,0
2016-05-31T01:09:34.779Z,0
2016-05-31T01:10:34.813Z,0
2016-05-31T01:11:34.659Z,0
2016-05-31T01:12:34.818Z,0
2016-05-31T01:13:34.868Z,0
2016-05-31T01:14:34.838Z,0
2016-05-31T01:15:34.857Z,0
2016-05-31T01:16:34.704Z,0
2016-05-31T01:17:34.893Z,0
2016-05-31T01:18:34.724Z,0
2016-05-31T01:19:34.743Z,0
2016-05-31T01:20:34.917Z,0
2016-05-31T01:21:34.936Z,0
2016-05-31T01:22:34.970Z,0
2016-05-31T01:23:35.128Z,0
2016-05-31T01:24:35.726Z,0
2016-05-31T01:25:35.009Z,0
2016-05-31T01:26:35.043Z,0
2016-05-31T01:27:34.983Z,0
2016-05-31T01:28:34.986Z,0
2016-05-31T01:29:34.864Z,0
2016-05-31T01:30:34.992Z,0
2016-05-31T01:31:35.025Z,0
2016-05-31T01:32:34.856Z,0
2016-05-31T01:33:35.046Z,0
2016-05-31T01:34:35.065Z,0
2016-05-31T01:35:34.927Z,0
2016-05-31T01:36:34.913Z,0
2016-05-31T01:37:35.073Z,0
2016-05-31T01:38:35.482Z,0
2016-05-31T01:39:35.141Z,0
2016-05-31T01:40:35.112Z,0
2016-05-31T01:41:35.130Z,0
2016-05-31T01:42:34.992Z,0
2016-05-31T01:43:34.995Z,0
2016-05-31T01:44:35.138Z,0
2016-05-31T01:45:35.157Z,0
2016-05-31T01:46:35.190Z,0
2016-05-31T01:47:35.177Z,0
2016-05-31T01:48:35.071Z,0
2016-05-31T01:49:35.199Z,0
2016-05-31T01:50:35.201Z,0
2016-05-31T01:51:35.204Z,0
2016-05-31T01:52:37.348Z,0
2016-05-31T01:53:35.412Z,0
2016-05-31T01:54:35.275Z,0
2016-05-31T01:55:35.137Z,0
2016-05-31T01:56:35.281Z,0
2016-05-31T01:57:35.142Z,0
2016-05-31T01:58:35.317Z,0
2016-05-31T01:59:35.303Z,0
2016-05-31T02:00:35.306Z,0
2016-05-31T02:01:35.309Z,0
2016-05-31T02:02:35.343Z,0
2016-05-31T02:03:35.205Z,0
2016-05-31T02:04:35.364Z,0
2016-05-31T02:05:35.054Z,0
2016-05-31T02:06:35.229Z,0
2016-05-31T02:07:35.247Z,0
2016-05-31T02:08:35.249Z,0
2016-05-31T02:09:35.252Z,0
2016-05-31T02:10:35.255Z,0
2016-05-31T02:11:35.446Z,0
2016-05-31T02:12:35.433Z,0
2016-05-31T02:13:35.310Z,0
2016-05-31T02:14:35.469Z,0
2016-05-31T02:15:35.472Z,0
2016-05-31T02:16:35.318Z,0
2016-05-31T02:17:35.337Z,0
2016-05-31T02:18:35.511Z,0
2016-05-31T02:19:35.514Z,0
2016-05-31T02:20:35.516Z,0
2016-05-31T02:21:35.238Z,0
2016-05-31T02:22:36.443Z,0
2016-05-31T02:23:35.415Z,0
2016-05-31T02:24:35.262Z,0
2016-05-31T02:25:35.593Z,0
2016-05-31T02:26:35.565Z,0
2016-05-31T02:27:35.457Z,0
2016-05-31T02:28:35.601Z,0
2016-05-31T02:29:35.166Z,0
2016-05-31T02:30:35.497Z,0
2016-05-31T02:31:35.640Z,0
2016-05-31T02:32:35.642Z,0
2016-05-31T02:33:35.630Z,0
2016-05-31T02:34:35.195Z,0
2016-05-31T02:35:35.682Z,0
2016-05-31T02:36:35.403Z,0
2016-05-31T02:37:35.437Z,0
2016-05-31T02:38:35.580Z,0
2016-05-31T02:39:35.286Z,0
2016-05-31T02:40:35.586Z,0
2016-05-31T02:41:35.713Z,0
2016-05-31T02:42:35.966Z,0
2016-05-31T02:43:35.750Z,0
2016-05-31T02:44:35.769Z,0
2016-05-31T02:45:35.458Z,0
2016-05-31T02:46:35.774Z,0
2016-05-31T02:47:35.479Z,0
2016-05-31T02:48:35.654Z,0
2016-05-31T02:49:35.813Z,0
2016-05-31T02:50:35.832Z,0
2016-05-31T02:51:35.679Z,0
2016-05-31T02:52:35.931Z,0
2016-05-31T02:53:35.934Z,0
2016-05-31T02:54:35.732Z,0
2016-05-31T02:55:35.876Z,0
2016-05-31T02:56:35.910Z,0
2016-05-31T02:57:35.757Z,0
2016-05-31T02:58:35.915Z,0
2016-05-31T02:59:35.918Z,0
2016-05-31T03:00:35.936Z,0
2016-05-31T03:01:35.924Z,0
2016-05-31T03:02:35.661Z,0
2016-05-31T03:03:35.789Z,0
2016-05-31T03:04:35.697Z,0
2016-05-31T03:05:35.997Z,0
2016-05-31T03:06:35.844Z,0
2016-05-31T03:07:36.002Z,0
2016-05-31T03:08:35.709Z,0
2016-05-31T03:09:36.039Z,0
2016-05-31T03:10:35.870Z,0
2016-05-31T03:11:35.888Z,0
2016-05-31T03:12:35.905Z,0
2016-05-31T03:13:35.894Z,0
2016-05-31T03:14:36.099Z,0
2016-05-31T03:15:36.086Z,0
2016-05-31T03:16:36.089Z,0
2016-05-31T03:17:36.091Z,0
2016-05-31T03:18:36.110Z,0
2016-05-31T03:19:36.129Z,0
2016-05-31T03:20:35.990Z,0
2016-05-31T03:21:36.180Z,0
2016-05-31T03:22:36.012Z,0
2016-05-31T03:23:36.343Z,0
2016-05-31T03:24:36.017Z,0
2016-05-31T03:25:36.191Z,0
2016-05-31T03:26:36.194Z,0
2016-05-31T03:27:36.212Z,0
2016-05-31T03:28:36.198Z,0
2016-05-31T03:29:36.249Z,0
2016-05-31T03:30:36.079Z,0
2016-05-31T03:31:36.239Z,0
2016-05-31T03:32:36.101Z,0
2016-05-31T03:33:35.822Z,0
2016-05-31T03:34:36.122Z,0
2016-05-31T03:35:36.297Z,0
2016-05-31T03:36:36.128Z,0
2016-05-31T03:37:37.083Z,0
2016-05-31T03:38:37.273Z,0
2016-05-31T03:39:36.386Z,0
2016-05-31T03:40:36.185Z,0
2016-05-31T03:41:36.047Z,0
2016-05-31T03:42:36.361Z,0
2016-05-31T03:43:36.380Z,0
2016-05-31T03:44:36.352Z,0
2016-05-31T03:45:36.401Z,0
2016-05-31T03:46:36.405Z,0
2016-05-31T03:47:36.250Z,0
2016-05-31T03:48:36.409Z,0
2016-05-31T03:49:36.131Z,0
2016-05-31T03:50:36.274Z,0
2016-05-31T03:51:36.307Z,0
2016-05-31T03:52:37.202Z,0
2016-05-31T03:53:36.360Z,0
2016-05-31T03:54:36.332Z,0
2016-05-31T03:55:36.335Z,0
2016-05-31T03:56:36.321Z,0
2016-05-31T03:57:36.371Z,0
2016-05-31T03:58:36.530Z,0
2016-05-31T03:59:36.548Z,0
2016-05-31T04:00:36.535Z,5
2016-05-31T04:01:36.584Z,5
2016-05-31T04:02:36.416Z,5
2016-05-31T04:03:36.247Z,5
2016-05-31T04:04:36.592Z,5
2016-05-31T04:05:36.424Z,5
2016-05-31T04:06:36.583Z,5
2016-05-31T04:07:36.897Z,5
2016-05-31T04:08:36.791Z,5
2016-05-31T04:09:36.623Z,5
2016-05-31T04:10:36.641Z,5
2016-05-31T04:11:36.518Z,5
2016-05-31T04:12:36.662Z,5
2016-05-31T04:13:36.695Z,5
2016-05-31T04:14:36.682Z,5
2016-05-31T04:15:36.700Z,5
2016-05-31T04:16:36.547Z,5
2016-05-31T04:17:36.425Z,5
2016-05-31T04:18:36.708Z,5
2016-05-31T04:19:36.586Z,5
2016-05-31T04:20:36.730Z,5
2016-05-31T04:21:36.607Z,5
2016-05-31T04:22:38.094Z,5
2016-05-31T04:23:36.738Z,5
2016-05-31T04:24:36.772Z,10
2016-05-31T04:25:36.790Z,10
2016-05-31T04:26:36.824Z,10
2016-05-31T04:27:36.655Z,5
2016-05-31T04:28:36.673Z,5
2016-05-31T04:29:36.831Z,5
2016-05-31T04:30:36.834Z,5
2016-05-31T04:31:36.885Z,5
2016-05-31T04:32:36.871Z,5
2016-05-31T04:33:36.733Z,5
2016-05-31T04:34:36.565Z,5
2016-05-31T04:35:36.911Z,5
2016-05-31T04:36:36.881Z,5
2016-05-31T04:37:37.401Z,5
2016-05-31T04:38:36.981Z,5
2016-05-31T04:39:36.922Z,5
2016-05-31T04:40:36.924Z,5
2016-05-31T04:41:36.803Z,5
2016-05-31T04:42:36.836Z,5
2016-05-31T04:43:36.979Z,5
2016-05-31T04:44:36.841Z,5
2016-05-31T04:45:36.985Z,5
2016-05-31T04:46:37.019Z,5
2016-05-31T04:47:36.990Z,10
2016-05-31T04:48:36.883Z,10
2016-05-31T04:49:37.027Z,10
2016-05-31T04:50:36.919Z,10
2016-05-31T04:51:37.047Z,10
2016-05-31T04:52:38.004Z,10
2016-05-31T04:53:36.803Z,10
2016-05-31T04:54:36.930Z,10
2016-05-31T04:55:36.949Z,10
2016-05-31T04:56:37.107Z,10
2016-05-31T04:57:36.642Z,10
2016-05-31T04:58:37.129Z,10
2016-05-31T04:59:37.147Z,10
2016-05-31T05:00:36.994Z,10
2016-05-31T05:01:37.137Z,10
2016-05-31T05:02:37.030Z,10
2016-05-31T05:03:37.034Z,10
2016-05-31T05:04:37.036Z,10
2016-05-31T05:05:37.179Z,10
2016-05-31T05:06:37.056Z,10
2016-05-31T05:07:37.545Z,10
2016-05-31T05:08:37.312Z,10
2016-05-31T05:09:37.080Z,10
2016-05-31T05:10:37.098Z,10
2016-05-31T05:11:37.100Z,10
2016-05-31T05:12:37.276Z,10
2016-05-31T05:13:37.294Z,10
2016-05-31T05:14:37.297Z,10
2016-05-31T05:15:37.300Z,10
2016-05-31T05:16:37.161Z,10
2016-05-31T05:17:37.024Z,10
2016-05-31T05:18:37.307Z,10
2016-05-31T05:19:37.358Z,10
2016-05-31T05:20:37.360Z,10
2016-05-31T05:21:37.207Z,10
2016-05-31T05:22:38.552Z,10
2016-05-31T05:23:37.415Z,10
2016-05-31T05:24:37.386Z,10
2016-05-31T05:25:37.326Z,10
2016-05-31T05:26:37.454Z,10
2016-05-31T05:27:37.426Z,15
2016-05-31T05:28:37.288Z,15
2016-05-31T05:29:37.446Z,15
2016-05-31T05:30:37.449Z,15
2016-05-31T05:31:37.484Z,15
2016-05-31T05:32:37.329Z,15
2016-05-31T05:33:37.504Z,15
2016-05-31T05:34:37.492Z,15
2016-05-31T05:35:37.510Z,15
2016-05-31T05:36:37.356Z,15
2016-05-31T05:37:37.250Z,15
2016-05-31T05:38:38.205Z,15
2016-05-31T05:39:37.536Z,15
2016-05-31T05:40:37.398Z,15
2016-05-31T05:41:37.431Z,15
2016-05-31T05:42:37.576Z,15
2016-05-31T05:43:37.594Z,15
2016-05-31T05:44:37.597Z,15
2016-05-31T05:45:37.458Z,15
2016-05-31T05:46:37.461Z,15
2016-05-31T05:47:37.652Z,15
2016-05-31T05:48:37.622Z,15
2016-05-31T05:49:37.672Z,15
2016-05-31T05:50:37.659Z,15
2016-05-31T05:51:37.678Z,15
2016-05-31T05:52:37.571Z,15
2016-05-31T05:53:37.745Z,15
2016-05-31T05:54:37.702Z,15
2016-05-31T05:55:37.563Z,15
2016-05-31T05:56:37.722Z,15
2016-05-31T05:57:37.593Z,15
2016-05-31T05:58:37.795Z,15
2016-05-31T05:59:37.808Z,10
2016-05-31T06:00:37.525Z,10
2016-05-31T06:01:37.725Z,10
2016-05-31T06:02:37.781Z,10
2016-05-31T06:03:37.793Z,10
2016-05-31T06:04:37.977Z,10
2016-05-31T06:05:37.677Z,10
2016-05-31T06:06:38.002Z,15
2016-05-31T06:07:38.215Z,10
2016-05-31T06:08:38.564Z,10
2016-05-31T06:09:37.900Z,10
2016-05-31T06:10:38.062Z,10
2016-05-31T06:11:37.927Z,10
2016-05-31T06:12:37.932Z,15
2016-05-31T06:13:38.107Z,15
2016-05-31T06:14:38.143Z,15
2016-05-31T06:15:37.960Z,15
2016-05-31T06:16:38.103Z,15
2016-05-31T06:17:38.139Z,15
2016-05-31T06:18:37.845Z,15
2016-05-31T06:19:38.004Z,15
2016-05-31T06:20:38.023Z,15
2016-05-31T06:21:38.182Z,15
2016-05-31T06:22:38.545Z,15
2016-05-31T06:23:39.469Z,15
2016-05-31T06:24:38.221Z,15
2016-05-31T06:25:38.210Z,15
2016-05-31T06:26:38.258Z,15
2016-05-31T06:27:38.246Z,15
2016-05-31T06:28:38.263Z,15
2016-05-31T06:29:38.266Z,15
2016-05-31T06:30:38.113Z,15
2016-05-31T06:31:38.287Z,15
2016-05-31T06:32:38.165Z,20
2016-05-31T06:33:38.308Z,20
2016-05-31T06:34:38.327Z,20
2016-05-31T06:35:38.048Z,20
2016-05-31T06:36:38.192Z,20
2016-05-31T06:37:38.756Z,20
2016-05-31T06:38:38.229Z,20
2016-05-31T06:39:38.247Z,20
2016-05-31T06:40:38.233Z,20
2016-05-31T06:41:38.080Z,20
2016-05-31T06:42:38.426Z,20
2016-05-31T06:43:38.226Z,20
2016-05-31T06:44:38.260Z,20
2016-05-31T06:45:38.419Z,20
2016-05-31T06:46:38.436Z,20
2016-05-31T06:47:38.456Z,20
2016-05-31T06:48:38.474Z,20
2016-05-31T06:49:38.492Z,20
2016-05-31T06:50:38.480Z,20
2016-05-31T06:51:38.497Z,20
2016-05-31T06:52:38.360Z,20
2016-05-31T06:53:39.205Z,20
2016-05-31T06:54:38.505Z,20
2016-05-31T06:55:38.383Z,20
2016-05-31T06:56:38.558Z,20
2016-05-31T06:57:38.576Z,25
2016-05-31T06:58:38.391Z,25
2016-05-31T06:59:38.426Z,30
2016-05-31T07:00:38.444Z,30
2016-05-31T07:01:38.618Z,30
2016-05-31T07:02:38.449Z,30
2016-05-31T07:03:38.623Z,30
2016-05-31T07:04:38.642Z,30
2016-05-31T07:05:38.535Z,30
2016-05-31T07:06:38.647Z,30
2016-05-31T07:07:38.197Z,30
2016-05-31T07:08:39.293Z,30
2016-05-31T07:09:38.687Z,30
2016-05-31T07:10:38.673Z,30
2016-05-31T07:11:38.551Z,30
2016-05-31T07:12:38.725Z,30
2016-05-31T07:13:38.589Z,30
2016-05-31T07:14:38.559Z,30
2016-05-31T07:15:38.750Z,20
2016-05-31T07:16:38.752Z,20
2016-05-31T07:17:38.599Z,20
2016-05-31T07:18:38.772Z,20
2016-05-31T07:19:38.480Z,20
2016-05-31T07:20:38.810Z,20
2016-05-31T07:21:38.813Z,20
2016-05-31T07:22:39.096Z,20
2016-05-31T07:23:38.819Z,25
2016-05-31T07:24:38.836Z,25
2016-05-31T07:25:38.870Z,25
2016-05-31T07:26:38.701Z,25
2016-05-31T07:27:38.563Z,25
2016-05-31T07:28:38.879Z,25
2016-05-31T07:29:38.881Z,25
2016-05-31T07:30:38.759Z,25
2016-05-31T07:31:38.933Z,25
2016-05-31T07:32:38.952Z,25
2016-05-31T07:33:38.907Z,25
2016-05-31T07:34:38.770Z,25
2016-05-31T07:35:38.959Z,25
2016-05-31T07:36:38.806Z,25
2016-05-31T07:37:39.543Z,25
2016-05-31T07:38:38.999Z,30
2016-05-31T07:39:38.704Z,30
2016-05-31T07:40:38.832Z,30
2016-05-31T07:41:39.007Z,30
2016-05-31T07:42:39.025Z,30
2016-05-31T07:43:39.044Z,30
2016-05-31T07:44:39.030Z,30
2016-05-31T07:45:39.065Z,30
2016-05-31T07:46:39.068Z,30
2016-05-31T07:47:39.070Z,30
2016-05-31T07:48:39.088Z,30
2016-05-31T07:49:39.106Z,30
2016-05-31T07:50:38.938Z,30
2016-05-31T07:51:38.800Z,30
2016-05-31T07:52:39.036Z,30
2016-05-31T07:53:40.071Z,30
2016-05-31T07:54:39.151Z,30
2016-05-31T07:55:39.170Z,30
2016-05-31T07:56:39.157Z,30
2016-05-31T07:57:39.191Z,30
2016-05-31T07:58:39.177Z,30
2016-05-31T07:59:39.071Z,30
2016-05-31T08:00:39.183Z,30
2016-05-31T08:01:39.108Z,30
2016-05-31T08:02:39.220Z,30
2016-05-31T08:03:39.237Z,30
2016-05-31T08:04:39.241Z,35
2016-05-31T08:05:39.275Z,35
2016-05-31T08:06:39.277Z,35
2016-05-31T08:07:39.123Z,35
2016-05-31T08:08:39.001Z,35
2016-05-31T08:09:39.284Z,30
2016-05-31T08:10:39.320Z,30
2016-05-31T08:11:39.166Z,30
2016-05-31T08:12:39.340Z,30
2016-05-31T08:13:39.327Z,30
2016-05-31T08:14:39.362Z,30
2016-05-31T08:15:39.364Z,30
2016-05-31T08:16:39.398Z,30
2016-05-31T08:17:39.353Z,30
2016-05-31T08:18:39.231Z,30
2016-05-31T08:19:39.265Z,30
2016-05-31T08:20:39.268Z,30
2016-05-31T08:21:39.146Z,30
2016-05-31T08:22:39.461Z,30
2016-05-31T08:23:39.822Z,30
2016-05-31T08:24:39.450Z,30
2016-05-31T08:25:39.469Z,30
2016-05-31T08:26:39.347Z,30
2016-05-31T08:27:39.318Z,30
2016-05-31T08:28:39.540Z,30
2016-05-31T08:29:39.354Z,30
2016-05-31T08:30:39.046Z,30
2016-05-31T08:31:39.532Z,30
2016-05-31T08:32:39.551Z,30
2016-05-31T08:33:39.537Z,30
2016-05-31T08:34:39.571Z,30
2016-05-31T08:35:39.559Z,30
2016-05-31T08:36:39.592Z,30
2016-05-31T08:37:40.190Z,30
2016-05-31T08:38:39.598Z,30
2016-05-31T08:39:39.820Z,30
2016-05-31T08:40:39.634Z,30
2016-05-31T08:41:39.653Z,30
2016-05-31T08:42:39.546Z,30
2016-05-31T08:43:39.689Z,30
2016-05-31T08:44:39.676Z,30
2016-05-31T08:45:39.664Z,30
2016-05-31T08:46:39.697Z,30
2016-05-31T08:47:39.669Z,30
2016-05-31T08:48:39.562Z,30
2016-05-31T08:49:39.722Z,30
2016-05-31T08:50:39.599Z,30
2016-05-31T08:51:39.727Z,30
2016-05-31T08:52:39.604Z,30
2016-05-31T08:53:39.763Z,30
2016-05-31T08:54:39.625Z,30
2016-05-31T08:55:39.784Z,30
2016-05-31T08:56:39.646Z,30
2016-05-31T08:57:39.789Z,30
2016-05-31T08:58:39.824Z,30
2016-05-31T08:59:39.669Z,35
2016-05-31T09:00:39.860Z,35
2016-05-31T09:01:39.847Z,35
2016-05-31T09:02:39.849Z,35
2016-05-31T09:03:39.852Z,35
2016-05-31T09:04:39.887Z,35
2016-05-31T09:05:39.873Z,35
2016-05-31T09:06:39.595Z,35
2016-05-31T09:07:40.707Z,35
2016-05-31T09:08:39.991Z,35
2016-05-31T09:09:39.915Z,30
2016-05-31T09:10:39.949Z,30
2016-05-31T09:11:39.951Z,30
2016-05-31T09:12:39.783Z,30
2016-05-31T09:13:39.957Z,30
2016-05-31T09:14:39.976Z,30
2016-05-31T09:15:39.822Z,30
2016-05-31T09:16:39.872Z,30
2016-05-31T09:17:40.014Z,30
2016-05-31T09:18:40.018Z,30
2016-05-31T09:19:40.020Z,30
2016-05-31T09:20:40.055Z,30
2016-05-31T09:21:40.041Z,30
2016-05-31T09:22:40.076Z,30
2016-05-31T09:23:40.218Z,30
2016-05-31T09:24:39.784Z,30
2016-05-31T09:25:40.083Z,25
2016-05-31T09:26:40.086Z,25
2016-05-31T09:27:40.119Z,25
2016-05-31T09:28:39.967Z,25
2016-05-31T09:29:40.000Z,25
2016-05-31T09:30:39.988Z,25
2016-05-31T09:31:40.021Z,25
2016-05-31T09:32:40.150Z,25
2016-05-31T09:33:40.182Z,25
2016-05-31T09:34:40.186Z,25
2016-05-31T09:35:40.048Z,25
2016-05-31T09:36:40.081Z,25
2016-05-31T09:37:40.179Z,25
2016-05-31T09:38:40.166Z,25
2016-05-31T09:39:40.277Z,25
2016-05-31T09:40:40.249Z,25
2016-05-31T09:41:40.251Z,25
2016-05-31T09:42:40.114Z,20
2016-05-31T09:43:40.287Z,20
2016-05-31T09:44:40.150Z,20
2016-05-31T09:45:40.153Z,20
2016-05-31T09:46:40.312Z,20
2016-05-31T09:47:40.345Z,20
2016-05-31T09:48:40.333Z,20
2016-05-31T09:49:40.211Z,20
2016-05-31T09:50:40.323Z,20
2016-05-31T09:51:40.372Z,20
2016-05-31T09:52:40.234Z,20
2016-05-31T09:53:40.252Z,20
2016-05-31T09:54:40.380Z,20
2016-05-31T09:55:40.274Z,20
2016-05-31T09:56:40.402Z,20
2016-05-31T09:57:40.435Z,20
2016-05-31T09:58:40.453Z,15
2016-05-31T09:59:40.440Z,15
2016-05-31T10:00:40.303Z,15
2016-05-31T10:01:40.321Z,15
2016-05-31T10:02:40.464Z,15
2016-05-31T10:03:40.482Z,15
2016-05-31T10:04:40.485Z,15
2016-05-31T10:05:40.206Z,15
2016-05-31T10:06:40.507Z,20
2016-05-31T10:07:40.352Z,20
2016-05-31T10:08:40.840Z,20
2016-05-31T10:09:40.592Z,20
2016-05-31T10:10:40.549Z,20
2016-05-31T10:11:40.582Z,20
2016-05-31T10:12:40.413Z,20
2016-05-31T10:13:40.603Z,20
2016-05-31T10:14:40.293Z,20
2016-05-31T10:15:40.623Z,20
2016-05-31T10:16:40.627Z,20
2016-05-31T10:17:40.614Z,20
2016-05-31T10:18:40.336Z,20
2016-05-31T10:19:40.681Z,20
2016-05-31T10:20:40.513Z,20
2016-05-31T10:21:40.672Z,20
2016-05-31T10:22:41.111Z,20
2016-05-31T10:23:41.303Z,20
2016-05-31T10:24:40.758Z,20
2016-05-31T10:25:40.557Z,20
2016-05-31T10:26:40.607Z,20
2016-05-31T10:27:40.735Z,20
2016-05-31T10:28:40.597Z,20
2016-05-31T10:29:40.615Z,20
2016-05-31T10:30:40.805Z,20
2016-05-31T10:31:40.652Z,20
2016-05-31T10:32:40.794Z,20
2016-05-31T10:33:40.829Z,25
2016-05-31T10:34:41.035Z,25
2016-05-31T10:35:41.021Z,25
2016-05-31T10:36:40.852Z,30
2016-05-31T10:37:41.152Z,30
2016-05-31T10:38:41.640Z,30
2016-05-31T10:39:40.704Z,30
2016-05-31T10:40:40.707Z,30
2016-05-31T10:41:40.898Z,30
2016-05-31T10:42:40.571Z,35
2016-05-31T10:43:40.887Z,35
2016-05-31T10:44:40.906Z,30
2016-05-31T10:45:40.939Z,30
2016-05-31T10:46:40.926Z,30
2016-05-31T10:47:40.804Z,30
2016-05-31T10:48:40.947Z,25
2016-05-31T10:49:40.795Z,25
2016-05-31T10:50:40.968Z,20
2016-05-31T10:51:41.018Z,20
2016-05-31T10:52:41.145Z,20
2016-05-31T10:53:41.319Z,15
2016-05-31T10:54:40.886Z,15
2016-05-31T10:55:40.888Z,15
2016-05-31T10:56:40.875Z,15
2016-05-31T10:57:41.066Z,15
2016-05-31T10:58:41.052Z,10
2016-05-31T10:59:41.071Z,10
2016-05-31T11:00:41.089Z,10
2016-05-31T11:01:41.107Z,10
2016-05-31T11:02:41.094Z,10
2016-05-31T11:03:41.113Z,10
2016-05-31T11:04:41.115Z,10
2016-05-31T11:05:41.133Z,10
2016-05-31T11:06:41.168Z,10
2016-05-31T11:07:42.107Z,10
2016-05-31T11:08:40.908Z,10
2016-05-31T11:09:41.019Z,10
2016-05-31T11:10:41.193Z,10
2016-05-31T11:11:41.181Z,10
2016-05-31T11:12:41.231Z,10
2016-05-31T11:13:41.217Z,10
2016-05-31T11:14:41.237Z,10
2016-05-31T11:15:41.239Z,10
2016-05-31T11:16:41.257Z,10
2016-05-31T11:17:41.260Z,10
2016-05-31T11:18:41.293Z,10
2016-05-31T11:19:41.125Z,10
2016-05-31T11:20:41.267Z,10
2016-05-31T11:21:41.286Z,10
2016-05-31T11:22:42.133Z,10
2016-05-31T11:23:42.932Z,10
2016-05-31T11:24:41.216Z,10
2016-05-31T11:25:41.187Z,10
2016-05-31T11:26:41.362Z,10
2016-05-31T11:27:41.364Z,10
2016-05-31T11:28:41.383Z,10
2016-05-31T11:29:41.214Z,10
2016-05-31T11:30:41.263Z,10
2016-05-31T11:31:41.391Z,10
2016-05-31T11:32:41.268Z,10
2016-05-31T11:33:41.413Z,10
2016-05-31T11:34:41.258Z,10
2016-05-31T11:35:41.464Z,10
2016-05-31T11:36:41.310Z,10
2016-05-31T11:37:41.344Z,10
2016-05-31T11:38:42.143Z,10
2016-05-31T11:39:41.521Z,10
2016-05-31T11:40:41.338Z,15
2016-05-31T11:41:41.371Z,20
2016-05-31T11:42:41.529Z,20
2016-05-31T11:43:41.533Z,25
2016-05-31T11:44:41.551Z,25
2016-05-31T11:45:41.398Z,25
2016-05-31T11:46:41.573Z,25
2016-05-31T11:47:41.403Z,25
2016-05-31T11:48:41.577Z,25
2016-05-31T11:49:41.595Z,25
2016-05-31T11:50:41.442Z,25
2016-05-31T11:51:41.617Z,25
2016-05-31T11:52:41.198Z,25
2016-05-31T11:53:42.903Z,25
2016-05-31T11:54:41.469Z,25
2016-05-31T11:55:41.642Z,25
2016-05-31T11:56:41.317Z,25
2016-05-31T11:57:41.680Z,25
2016-05-31T11:58:41.651Z,25
2016-05-31T11:59:41.544Z,25
2016-05-31T12:00:41.672Z,25
2016-05-31T12:01:41.408Z,25
2016-05-31T12:02:41.693Z,25
2016-05-31T12:03:41.712Z,25
2016-05-31T12:04:41.714Z,25
2016-05-31T12:05:41.733Z,25
2016-05-31T12:06:41.594Z,25
2016-05-31T12:07:43.440Z,25
2016-05-31T12:08:41.460Z,25
2016-05-31T12:09:41.760Z,25
2016-05-31T12:10:41.590Z,25
2016-05-31T12:11:41.765Z,25
2016-05-31T12:12:41.767Z,25
2016-05-31T12:13:41.629Z,25
2016-05-31T12:14:41.757Z,25
2016-05-31T12:15:41.806Z,25
2016-05-31T12:16:41.637Z,25
2016-05-31T12:17:41.827Z,25
2016-05-31T12:18:41.814Z,25
2016-05-31T12:19:41.832Z,25
2016-05-31T12:20:41.695Z,25
2016-05-31T12:21:41.870Z,25
2016-05-31T12:22:42.154Z,25
2016-05-31T12:23:42.906Z,25
2016-05-31T12:24:41.861Z,25
2016-05-31T12:25:41.848Z,25
2016-05-31T12:26:41.883Z,25
2016-05-31T12:27:41.886Z,25
2016-05-31T12:28:41.903Z,25
2016-05-31T12:29:41.734Z,25
2016-05-31T12:30:41.925Z,25
2016-05-31T12:31:41.896Z,25
2016-05-31T12:32:41.774Z,25
2016-05-31T12:33:41.916Z,25
2016-05-31T12:34:41.951Z,25
2016-05-31T12:35:41.922Z,25
2016-05-31T12:36:41.941Z,25
2016-05-31T12:37:42.147Z,20
2016-05-31T12:38:43.696Z,20
2016-05-31T12:39:41.824Z,20
2016-05-31T12:40:42.295Z,20
2016-05-31T12:41:41.985Z,20
2016-05-31T12:42:42.004Z,20
2016-05-31T12:43:41.866Z,20
2016-05-31T12:44:42.040Z,20
2016-05-31T12:45:41.996Z,20
2016-05-31T12:46:41.904Z,20
2016-05-31T12:47:41.861Z,20
2016-05-31T12:48:42.068Z,20
2016-05-31T12:49:41.882Z,20
2016-05-31T12:50:42.073Z,10
2016-05-31T12:51:42.059Z,10
2016-05-31T12:52:41.937Z,10
2016-05-31T12:53:42.752Z,10
2016-05-31T12:54:42.083Z,10
2016-05-31T12:55:42.101Z,10
2016-05-31T12:56:41.948Z,10
2016-05-31T12:57:41.981Z,10
2016-05-31T12:58:41.953Z,15
2016-05-31T12:59:42.128Z,15
2016-05-31T13:00:42.146Z,15
2016-05-31T13:01:41.977Z,15
2016-05-31T13:02:42.152Z,15
2016-05-31T13:03:42.170Z,15
2016-05-31T13:04:42.188Z,15
2016-05-31T13:05:42.160Z,15
2016-05-31T13:06:42.193Z,15
2016-05-31T13:07:43.197Z,20
2016-05-31T13:08:42.777Z,20
2016-05-31T13:09:42.202Z,20
2016-05-31T13:10:42.063Z,20
2016-05-31T13:11:42.222Z,20
2016-05-31T13:12:42.224Z,20
2016-05-31T13:13:42.274Z,20
2016-05-31T13:14:42.230Z,20
2016-05-31T13:15:42.249Z,20
2016-05-31T13:16:42.095Z,20
2016-05-31T13:17:42.129Z,20
2016-05-31T13:18:42.273Z,20
2016-05-31T13:19:42.306Z,20
2016-05-31T13:20:42.293Z,15
2016-05-31T13:21:42.312Z,15
2016-05-31T13:22:42.752Z,15
2016-05-31T13:23:45.098Z,15
2016-05-31T13:24:42.336Z,15
2016-05-31T13:25:42.369Z,15
2016-05-31T13:26:42.326Z,15
2016-05-31T13:27:42.344Z,15
2016-05-31T13:28:42.205Z,15
2016-05-31T13:29:42.365Z,15
2016-05-31T13:30:42.383Z,15
2016-05-31T13:31:42.244Z,15
2016-05-31T13:32:42.404Z,15
2016-05-31T13:33:42.391Z,15
2016-05-31T13:34:42.425Z,15
2016-05-31T13:35:42.427Z,15
2016-05-31T13:36:42.399Z,15
2016-05-31T13:37:42.730Z,15
2016-05-31T13:38:42.482Z,15
2016-05-31T13:39:42.454Z,15
2016-05-31T13:40:42.644Z,15
2016-05-31T13:41:42.318Z,15
2016-05-31T13:42:42.338Z,15
2016-05-31T13:43:42.465Z,15
2016-05-31T13:44:42.499Z,15
2016-05-31T13:45:42.330Z,15
2016-05-31T13:46:42.504Z,20
2016-05-31T13:47:42.506Z,20
2016-05-31T13:48:42.400Z,20
2016-05-31T13:49:42.529Z,20
2016-05-31T13:50:42.546Z,20
2016-05-31T13:51:42.534Z,20
2016-05-31T13:52:43.551Z,20
2016-05-31T13:53:42.648Z,15
2016-05-31T13:54:42.557Z,15
2016-05-31T13:55:42.606Z,15
2016-05-31T13:56:42.422Z,15
2016-05-31T13:57:42.596Z,15
2016-05-31T13:58:42.614Z,15
2016-05-31T13:59:42.586Z,15
2016-05-31T14:00:42.588Z,15
2016-05-31T14:01:42.467Z,15
2016-05-31T14:02:42.484Z,15
2016-05-31T14:03:42.596Z,15
2016-05-31T14:04:42.631Z,15
2016-05-31T14:05:42.650Z,10
2016-05-31T14:06:42.636Z,10
2016-05-31T14:07:43.123Z,10
2016-05-31T14:08:42.422Z,10
2016-05-31T14:09:42.675Z,10
2016-05-31T14:10:42.490Z,10
2016-05-31T14:11:42.524Z,10
2016-05-31T14:12:42.668Z,10
2016-05-31T14:13:42.702Z,10
2016-05-31T14:14:42.720Z,10
2016-05-31T14:15:42.394Z,10
2016-05-31T14:16:42.694Z,10
2016-05-31T14:17:42.728Z,15
2016-05-31T14:18:42.731Z,15
2016-05-31T14:19:42.576Z,15
2016-05-31T14:20:42.737Z,15
2016-05-31T14:21:42.770Z,15
2016-05-31T14:22:43.023Z,15
2016-05-31T14:23:42.666Z,15
2016-05-31T14:24:42.778Z,15
2016-05-31T14:25:42.812Z,15